createdAt,value
2023-04-02T00:01:06.306Z,5.39
2023-04-02T00:04:14.423Z,5.35
2023-04-02T00:06:45.705Z,5.34
2023-04-02T00:09:32.040Z,5.33
2023-04-02T00:12:15.828Z,5.29
2023-04-02T00:14:49.400Z,5.26
2023-04-02T00:17:17.481Z,5.26
2023-04-02T00:19:51.115Z,5.20
2023-04-02T00:22:22.942Z,5.20
2023-04-02T00:24:52.866Z,5.19
2023-04-02T00:27:22.494Z,5.18
2023-04-02T00:29:51.832Z,5.19
2023-04-02T00:32:26.261Z,5.19
2023-04-02T00:34:55.167Z,5.17
2023-04-02T00:37:28.126Z,5.11
2023-04-02T00:40:01.561Z,5.12
2023-04-02T00:42:32.143Z,5.09
2023-04-02T00:45:02.431Z,5.06
2023-04-02T00:47:35.404Z,5.03
2023-04-02T00:50:08.770Z,4.97
2023-04-02T00:52:37.232Z,4.93
2023-04-02T00:55:11.103Z,4.89
2023-04-02T00:57:43.015Z,4.89
2023-04-02T01:00:23.836Z,4.86
2023-04-02T01:03:29.899Z,4.84
2023-04-02T01:06:04.461Z,4.82
2023-04-02T01:08:44.440Z,4.79
2023-04-02T01:11:28.429Z,4.75
2023-04-02T01:14:03.635Z,4.74
2023-04-02T01:16:42.156Z,4.72
2023-04-02T01:19:29.736Z,4.71
2023-04-02T01:22:04.081Z,4.68
2023-04-02T01:24:34.646Z,4.65
2023-04-02T01:27:05.218Z,4.65
2023-04-02T01:29:37.155Z,4.66
2023-04-02T01:32:08.824Z,4.66
2023-04-02T01:34:37.866Z,4.66
2023-04-02T01:37:34.101Z,4.64
2023-04-02T01:40:14.400Z,4.63
2023-04-02T01:42:50.463Z,4.60
2023-04-02T01:45:22.748Z,4.57
2023-04-02T01:47:51.692Z,4.57
2023-04-02T01:50:31.412Z,4.56
2023-04-02T01:53:02.400Z,4.54
2023-04-02T01:55:40.966Z,4.53
2023-04-02T01:58:11.385Z,4.51
2023-04-02T02:00:47.379Z,4.49
2023-04-02T02:03:16.907Z,4.43
2023-04-02T02:05:46.324Z,4.42
2023-04-02T02:08:26.268Z,4.38
2023-04-02T02:10:54.025Z,4.36
2023-04-02T02:13:23.015Z,4.35
2023-04-02T02:15:52.535Z,4.34
2023-04-02T02:18:24.153Z,4.33
2023-04-02T02:20:53.071Z,4.34
2023-04-02T02:23:21.890Z,4.33
2023-04-02T02:25:49.661Z,4.32
2023-04-02T02:28:23.255Z,4.30
2023-04-02T02:30:57.401Z,4.27
2023-04-02T02:33:27.911Z,4.25
2023-04-02T02:36:03.225Z,4.18
2023-04-02T02:38:57.330Z,4.14
2023-04-02T02:41:38.904Z,4.10
2023-04-02T02:44:15.437Z,4.06
2023-04-02T02:46:50.981Z,4.04
2023-04-02T02:49:23.205Z,4.03
2023-04-02T02:51:58.568Z,4.04
2023-04-02T02:54:34.247Z,4.03
2023-04-02T02:57:07.452Z,3.99
2023-04-02T02:59:35.878Z,3.97
2023-04-02T03:02:07.260Z,3.97
2023-04-02T03:04:37.082Z,3.96
2023-04-02T03:07:10.596Z,3.95
2023-04-02T03:09:48.082Z,3.93
2023-04-02T03:12:30.708Z,3.92
2023-04-02T03:15:03.384Z,3.93
2023-04-02T03:17:38.422Z,3.91
2023-04-02T03:20:14.599Z,3.91
2023-04-02T03:22:48.201Z,3.92
2023-04-02T03:25:25.891Z,3.90
2023-04-02T03:28:02.845Z,3.87
2023-04-02T03:30:37.936Z,3.84
2023-04-02T03:33:15.316Z,3.76
2023-04-02T03:35:47.780Z,3.72
2023-04-02T03:38:21.176Z,3.70
2023-04-02T03:41:00.564Z,3.69
2023-04-02T03:43:35.733Z,3.69
2023-04-02T03:46:23.957Z,3.70
2023-04-02T03:48:56.896Z,3.68
2023-04-02T03:51:28.506Z,3.66
2023-04-02T03:53:57.164Z,3.62
2023-04-02T03:56:31.483Z,3.59
2023-04-02T03:59:13.206Z,3.58
2023-04-02T04:01:47.385Z,3.52
2023-04-02T04:04:19.517Z,3.48
2023-04-02T04:06:52.357Z,3.47
2023-04-02T04:09:25.146Z,3.40
2023-04-02T04:11:56.403Z,3.35
2023-04-02T04:14:32.219Z,3.28
2023-04-02T04:17:05.703Z,3.28
2023-04-02T04:19:45.551Z,3.28
2023-04-02T04:22:18.924Z,3.28
2023-04-02T04:24:50.164Z,3.28
2023-04-02T04:27:25.705Z,3.29
2023-04-02T04:29:59.348Z,3.29
2023-04-02T04:32:33.642Z,3.29
2023-04-02T04:35:21.978Z,3.28
2023-04-02T04:37:58.654Z,3.26
2023-04-02T04:40:30.826Z,3.24
2023-04-02T04:43:05.446Z,3.21
2023-04-02T04:45:43.517Z,3.19
2023-04-02T04:48:17.247Z,3.17
2023-04-02T04:50:54.759Z,3.14
2023-04-02T04:53:27.012Z,3.12
2023-04-02T04:56:12.142Z,3.08
2023-04-02T04:58:49.568Z,3.00
2023-04-02T05:01:23.059Z,2.96
2023-04-02T05:03:56.156Z,2.95
2023-04-02T05:06:35.318Z,2.93
2023-04-02T05:09:13.354Z,2.94
2023-04-02T05:11:46.500Z,2.94
2023-04-02T05:14:23.158Z,2.90
2023-04-02T05:16:57.413Z,2.85
2023-04-02T05:19:33.113Z,2.83
2023-04-02T05:22:13.301Z,2.82
2023-04-02T05:24:51.693Z,2.80
2023-04-02T05:27:27.738Z,2.79
2023-04-02T05:30:02.174Z,2.78
2023-04-02T05:32:33.151Z,2.77
2023-04-02T05:35:02.036Z,2.74
2023-04-02T05:37:32.060Z,2.70
2023-04-02T05:40:12.834Z,2.66
2023-04-02T05:42:46.218Z,2.66
2023-04-02T05:45:23.864Z,2.64
2023-04-02T05:47:59.808Z,2.65
2023-04-02T05:50:37.215Z,2.62
2023-04-02T05:53:15.375Z,2.59
2023-04-02T05:55:52.015Z,2.59
2023-04-02T06:01:08.699Z,2.60
2023-04-02T06:03:46.020Z,2.62
2023-04-02T06:06:23.899Z,2.60
2023-04-02T06:08:59.562Z,2.58
2023-04-02T06:11:32.188Z,2.56
2023-04-02T06:14:02.320Z,2.52
2023-04-02T06:16:33.414Z,2.48
2023-04-02T06:19:01.503Z,2.49
2023-04-02T06:21:29.370Z,2.43
2023-04-02T06:24:03.321Z,2.40
2023-04-02T06:26:35.252Z,2.40
2023-04-02T06:29:09.684Z,2.42
2023-04-02T06:31:43.397Z,2.44
2023-04-02T06:34:17.209Z,2.42
2023-04-02T06:36:56.628Z,2.38
2023-04-02T06:39:28.190Z,2.40
2023-04-02T06:42:02.341Z,2.44
2023-04-02T06:44:53.655Z,2.42
2023-04-02T06:47:44.290Z,2.43
2023-04-02T06:50:23.247Z,2.44
2023-04-02T06:52:53.797Z,2.46
2023-04-02T06:55:34.057Z,2.46
2023-04-02T06:58:02.394Z,2.47
2023-04-02T07:00:36.807Z,2.48
2023-04-02T07:03:08.686Z,2.52
2023-04-02T07:05:36.920Z,2.52
2023-04-02T07:08:05.118Z,2.56
2023-04-02T07:10:34.657Z,2.57
2023-04-02T07:13:02.838Z,2.57
2023-04-02T07:15:31.248Z,2.55
2023-04-02T07:18:00.273Z,2.56
2023-04-02T07:20:31.129Z,2.56
2023-04-02T07:23:03.015Z,2.58
2023-04-02T07:25:30.934Z,2.58
2023-04-02T07:28:01.412Z,2.63
2023-04-02T07:30:29.138Z,2.64
2023-04-02T07:32:56.916Z,2.64
2023-04-02T07:35:24.737Z,2.68
2023-04-02T07:37:52.868Z,2.71
2023-04-02T07:40:22.888Z,2.71
2023-04-02T07:42:51.155Z,2.73
2023-04-02T07:45:20.670Z,2.74
2023-04-02T07:47:48.477Z,2.78
2023-04-02T07:50:16.394Z,2.78
2023-04-02T07:52:44.784Z,2.80
2023-04-02T07:55:14.180Z,2.82
2023-04-02T07:57:49.272Z,2.82
2023-04-02T08:00:18.157Z,2.82
2023-04-02T08:02:47.515Z,2.84
2023-04-02T08:05:15.869Z,2.85
2023-04-02T08:07:43.812Z,2.83
2023-04-02T08:10:13.625Z,2.82
2023-04-02T08:12:41.400Z,2.82
2023-04-02T08:15:11.178Z,2.85
2023-04-02T08:17:38.927Z,2.87
2023-04-02T08:20:11.916Z,2.89
2023-04-02T08:22:39.693Z,2.91
2023-04-02T08:25:08.224Z,2.93
2023-04-02T08:27:36.188Z,2.96
2023-04-02T08:30:04.525Z,2.98
2023-04-02T08:32:32.275Z,3.00
2023-04-02T08:35:00.132Z,3.00
2023-04-02T08:37:29.351Z,3.00
2023-04-02T08:39:57.154Z,3.02
2023-04-02T08:42:32.114Z,3.03
2023-04-02T08:45:23.672Z,3.07
2023-04-02T08:47:55.936Z,3.11
2023-04-02T08:50:30.970Z,3.12
2023-04-02T08:53:01.498Z,3.10
2023-04-02T08:55:38.331Z,3.10
2023-04-02T08:58:17.456Z,3.09
2023-04-02T09:00:46.628Z,3.03
2023-04-02T09:03:19.048Z,3.01
2023-04-02T09:05:48.799Z,3.03
2023-04-02T09:08:20.776Z,3.06
2023-04-02T09:10:54.746Z,3.10
2023-04-02T09:13:25.611Z,3.09
2023-04-02T09:15:59.743Z,3.14
2023-04-02T09:18:31.856Z,3.15
2023-04-02T09:21:01.357Z,3.16
2023-04-02T09:23:30.643Z,3.14
2023-04-02T09:26:04.276Z,3.13
2023-04-02T09:28:32.770Z,3.12
2023-04-02T09:31:07.415Z,3.13
2023-04-02T09:33:43.956Z,3.13
2023-04-02T09:36:33.871Z,3.16
2023-04-02T09:39:07.311Z,3.20
2023-04-02T09:41:37.385Z,3.24
2023-04-02T09:44:21.136Z,3.29
2023-04-02T09:46:52.942Z,3.30
2023-04-02T09:49:25.122Z,3.30
2023-04-02T09:52:20.584Z,3.31
2023-04-02T09:55:17.690Z,3.32
2023-04-02T09:57:46.166Z,3.34
2023-04-02T10:00:39.703Z,3.36
2023-04-02T10:03:24.387Z,3.35
2023-04-02T10:06:06.448Z,3.33
2023-04-02T10:08:34.646Z,3.35
2023-04-02T10:11:09.107Z,3.33
2023-04-02T10:13:45.305Z,3.33
2023-04-02T10:16:20.543Z,3.38
2023-04-02T10:18:52.360Z,3.39
2023-04-02T10:21:25.670Z,3.39
2023-04-02T10:23:53.693Z,3.41
2023-04-02T10:26:48.706Z,3.45
2023-04-02T10:29:42.614Z,3.52
2023-04-02T10:32:15.984Z,3.55
2023-04-02T10:34:52.980Z,3.67
2023-04-02T10:37:48.275Z,3.80
2023-04-02T10:40:22.166Z,3.90
2023-04-02T10:43:00.138Z,3.96
2023-04-02T10:45:39.065Z,4.07
2023-04-02T10:48:17.214Z,4.08
2023-04-02T10:50:51.774Z,4.13
2023-04-02T10:53:21.434Z,4.15
2023-04-02T10:55:53.765Z,4.22
2023-04-02T10:58:25.676Z,4.30
2023-04-02T11:00:57.766Z,4.29
2023-04-02T11:03:34.458Z,4.34
2023-04-02T11:06:06.589Z,4.36
2023-04-02T11:08:42.432Z,4.43
2023-04-02T11:11:14.425Z,4.47
2023-04-02T11:13:53.516Z,4.48
2023-04-02T11:16:22.079Z,4.49
2023-04-02T11:19:25.859Z,4.48
2023-04-02T11:22:00.036Z,4.54
2023-04-02T11:24:43.524Z,4.54
2023-04-02T11:27:22.345Z,4.61
2023-04-02T11:29:54.938Z,4.65
2023-04-02T11:32:30.509Z,4.72
2023-04-02T11:35:07.052Z,4.83
2023-04-02T11:37:38.490Z,4.93
2023-04-02T11:40:39.101Z,4.98
2023-04-02T11:43:41.429Z,5.06
2023-04-02T11:46:37.030Z,5.07
2023-04-02T11:49:49.443Z,5.07
2023-04-02T11:52:26.512Z,5.07
2023-04-02T11:55:00.613Z,5.12
2023-04-02T11:57:40.975Z,5.17
2023-04-02T12:00:34.220Z,5.19
2023-04-02T12:03:25.601Z,5.21
2023-04-02T12:06:00.452Z,5.24
2023-04-02T12:08:54.271Z,5.21
2023-04-02T12:11:33.385Z,5.21
2023-04-02T12:14:02.098Z,5.22
2023-04-02T12:16:34.652Z,5.25
2023-04-02T12:19:09.019Z,5.30
2023-04-02T12:21:38.777Z,5.34
2023-04-02T12:24:07.661Z,5.35
2023-04-02T12:26:38.342Z,5.35
2023-04-02T12:29:24.748Z,5.38
2023-04-02T12:31:53.419Z,5.40
2023-04-02T12:34:25.137Z,5.41
2023-04-02T12:36:55.016Z,5.43
2023-04-02T12:39:24.674Z,5.43
2023-04-02T12:41:54.817Z,5.44
2023-04-02T12:44:24.408Z,5.46
2023-04-02T12:46:53.364Z,5.49
2023-04-02T12:49:38.242Z,5.52
2023-04-02T12:52:09.734Z,5.53
2023-04-02T12:54:44.905Z,5.59
2023-04-02T12:57:39.119Z,5.60
2023-04-02T13:00:33.836Z,5.60
2023-04-02T13:03:16.229Z,5.56
2023-04-02T13:05:50.842Z,5.54
2023-04-02T13:08:21.451Z,5.55
2023-04-02T13:10:54.706Z,5.57
2023-04-02T13:13:27.763Z,5.57
2023-04-02T13:16:08.281Z,5.58
2023-04-02T13:18:38.682Z,5.61
2023-04-02T13:21:25.420Z,5.60
2023-04-02T13:23:54.586Z,5.66
2023-04-02T13:26:24.419Z,5.68
2023-04-02T13:29:00.566Z,5.75
2023-04-02T13:31:28.956Z,5.83
2023-04-02T13:33:56.777Z,5.90
2023-04-02T13:36:26.588Z,5.95
2023-04-02T13:38:54.390Z,5.95
2023-04-02T13:41:26.343Z,6.01
2023-04-02T13:43:55.120Z,6.05
2023-04-02T13:46:26.346Z,6.08
2023-04-02T13:48:55.844Z,6.08
2023-04-02T13:51:28.571Z,6.07
2023-04-02T13:53:58.478Z,6.06
2023-04-02T13:56:26.287Z,6.05
2023-04-02T13:58:54.068Z,6.00
2023-04-02T14:01:26.099Z,5.94
2023-04-02T14:03:55.614Z,5.89
2023-04-02T14:06:36.207Z,5.86
2023-04-02T14:09:06.947Z,5.85
2023-04-02T14:11:49.159Z,5.88
2023-04-02T14:14:35.636Z,5.88
2023-04-02T14:17:14.946Z,5.90
2023-04-02T14:19:53.575Z,5.90
2023-04-02T14:22:36.041Z,5.93
2023-04-02T14:25:15.708Z,5.95
2023-04-02T14:27:52.868Z,5.95
2023-04-02T14:30:28.218Z,5.96
2023-04-02T14:33:01.454Z,6.03
2023-04-02T14:35:36.253Z,6.09
2023-04-02T14:38:13.885Z,6.16
2023-04-02T14:40:49.349Z,6.21
2023-04-02T14:43:21.239Z,6.28
2023-04-02T14:46:00.319Z,6.30
2023-04-02T14:48:44.337Z,6.27
2023-04-02T14:51:18.513Z,6.24
2023-04-02T14:53:55.576Z,6.22
2023-04-02T14:56:25.810Z,6.19
2023-04-02T14:59:03.640Z,6.17
2023-04-02T15:01:37.810Z,6.24
2023-04-02T15:04:09.460Z,6.31
2023-04-02T15:06:42.738Z,6.37
2023-04-02T15:09:18.559Z,6.55
2023-04-02T15:11:51.723Z,6.63
2023-04-02T15:14:24.752Z,6.71
2023-04-02T15:16:52.650Z,6.66
2023-04-02T15:19:21.034Z,6.64
2023-04-02T15:22:08.737Z,6.62
2023-04-02T15:24:48.687Z,6.63
2023-04-02T15:27:30.033Z,6.60
2023-04-02T15:30:04.510Z,6.58
2023-04-02T15:32:38.730Z,6.56
2023-04-02T15:35:22.519Z,6.55
2023-04-02T15:37:59.316Z,6.48
2023-04-02T15:40:52.405Z,6.40
2023-04-02T15:43:22.414Z,6.38
2023-04-02T15:45:59.266Z,6.37
2023-04-02T15:48:58.377Z,6.35
2023-04-02T15:51:36.399Z,6.36
2023-04-02T15:54:14.175Z,6.37
2023-04-02T15:56:53.548Z,6.40
2023-04-02T15:59:58.110Z,6.37
2023-04-02T16:02:40.581Z,6.35
2023-04-02T16:05:18.534Z,6.33
2023-04-02T16:08:03.281Z,6.28
2023-04-02T16:10:40.895Z,6.26
2023-04-02T16:13:18.849Z,6.23
2023-04-02T16:15:52.767Z,6.19
2023-04-02T16:18:31.729Z,6.17
2023-04-02T16:21:02.448Z,6.16
2023-04-02T16:23:34.968Z,6.14
2023-04-02T16:26:13.062Z,6.15
2023-04-02T16:28:55.556Z,6.13
2023-04-02T16:31:34.153Z,6.14
2023-04-02T16:34:10.906Z,6.13
2023-04-02T16:36:46.165Z,6.09
2023-04-02T16:39:26.116Z,6.05
2023-04-02T16:42:04.589Z,6.00
2023-04-02T16:44:44.731Z,5.99
2023-04-02T16:47:27.912Z,5.96
2023-04-02T16:50:02.963Z,5.94
2023-04-02T16:52:42.238Z,5.93
2023-04-02T16:55:24.329Z,5.92
2023-04-02T16:58:01.496Z,5.90
2023-04-02T17:00:38.910Z,5.87
2023-04-02T17:03:28.841Z,5.83
2023-04-02T17:06:02.615Z,5.79
2023-04-02T17:08:37.642Z,5.78
2023-04-02T17:11:08.354Z,5.77
2023-04-02T17:13:41.827Z,5.75
2023-04-02T17:16:19.837Z,5.74
2023-04-02T17:18:49.855Z,5.74
2023-04-02T17:21:22.427Z,5.73
2023-04-02T17:26:24.404Z,5.69
2023-04-02T17:28:53.886Z,5.66
2023-04-02T17:31:24.908Z,5.60
2023-04-02T17:33:52.704Z,5.57
2023-04-02T17:36:32.875Z,5.54
2023-04-02T17:39:10.652Z,5.51
2023-04-02T17:41:44.117Z,5.48
2023-04-02T17:44:33.256Z,5.45
2023-04-02T17:47:12.486Z,5.43
2023-04-02T17:49:49.635Z,5.43
2023-04-02T17:52:25.701Z,5.40
2023-04-02T17:55:03.680Z,5.39
2023-04-02T17:57:55.055Z,5.37
2023-04-02T18:00:36.977Z,5.36
2023-04-02T18:03:29.962Z,5.32
2023-04-02T18:06:03.200Z,5.28
2023-04-02T18:08:42.665Z,5.27
2023-04-02T18:11:14.624Z,5.28
2023-04-02T18:13:43.962Z,5.26
2023-04-02T18:16:25.854Z,5.24
2023-04-02T18:19:10.007Z,5.23
2023-04-02T18:21:44.227Z,5.20
2023-04-02T18:24:26.807Z,5.19
2023-04-02T18:27:06.614Z,5.16
2023-04-02T18:29:44.057Z,5.16
2023-04-02T18:32:33.986Z,5.13
2023-04-02T18:35:10.043Z,5.13
2023-04-02T18:37:43.797Z,5.12
2023-04-02T18:40:31.675Z,5.09
2023-04-02T18:43:05.922Z,5.08
2023-04-02T18:45:44.282Z,5.08
2023-04-02T18:48:28.939Z,5.08
2023-04-02T18:51:00.851Z,5.06
2023-04-02T18:53:32.239Z,5.06
2023-04-02T18:56:04.815Z,5.03
2023-04-02T18:58:38.846Z,5.02
2023-04-02T19:01:07.863Z,5.01
2023-04-02T19:03:41.930Z,4.98
2023-04-02T19:06:19.158Z,4.97
2023-04-02T19:08:51.257Z,4.99
2023-04-02T19:11:22.141Z,4.98
2023-04-02T19:13:51.366Z,4.96
2023-04-02T19:16:34.102Z,4.95
2023-04-02T19:19:11.564Z,4.92
2023-04-02T19:21:55.371Z,4.91
2023-04-02T19:24:37.720Z,4.90
2023-04-02T19:27:14.703Z,4.89
2023-04-02T19:29:57.657Z,4.87
2023-04-02T19:32:34.595Z,4.85
2023-04-02T19:35:11.776Z,4.85
2023-04-02T19:37:44.183Z,4.84
2023-04-02T19:40:23.891Z,4.83
2023-04-02T19:42:53.303Z,4.82
2023-04-02T19:45:38.692Z,4.81
2023-04-02T19:48:17.244Z,4.79
2023-04-02T19:50:46.025Z,4.78
2023-04-02T19:53:15.931Z,4.77
2023-04-02T19:55:44.472Z,4.76
2023-04-02T19:58:23.885Z,4.77
2023-04-02T20:00:51.711Z,4.77
2023-04-02T20:03:19.614Z,4.75
2023-04-02T20:05:47.594Z,4.74
2023-04-02T20:08:16.803Z,4.73
2023-04-02T20:10:45.744Z,4.72
2023-04-02T20:13:13.675Z,4.71
2023-04-02T20:15:41.855Z,4.69
2023-04-02T20:18:10.837Z,4.67
2023-04-02T20:20:39.095Z,4.66
2023-04-02T20:23:06.946Z,4.64
2023-04-02T20:25:36.282Z,4.63
2023-04-02T20:28:04.225Z,4.59
2023-04-02T20:30:33.017Z,4.57
2023-04-02T20:33:01.256Z,4.53
2023-04-02T20:35:29.769Z,4.50
2023-04-02T20:37:57.756Z,4.46
2023-04-02T20:40:25.898Z,4.42
2023-04-02T20:42:55.069Z,4.40
2023-04-02T20:45:24.301Z,4.38
2023-04-02T20:47:52.191Z,4.35
2023-04-02T20:50:20.069Z,4.35
2023-04-02T20:52:48.102Z,4.32
2023-04-02T20:55:15.994Z,4.31
2023-04-02T20:57:43.800Z,4.29
2023-04-02T21:00:14.652Z,4.27
2023-04-02T21:02:42.459Z,4.24
2023-04-02T21:05:10.620Z,4.23
2023-04-02T21:07:38.485Z,4.20
2023-04-02T21:10:06.888Z,4.18
2023-04-02T21:12:34.609Z,4.15
2023-04-02T21:15:02.963Z,4.13
2023-04-02T21:17:32.414Z,4.11
2023-04-02T21:20:00.243Z,4.08
2023-04-02T21:22:28.043Z,4.05
2023-04-02T21:24:55.848Z,4.00
2023-04-02T21:27:25.908Z,3.96
2023-04-02T21:29:53.966Z,3.95
2023-04-02T21:32:22.304Z,3.91
2023-04-02T21:34:51.644Z,3.87
2023-04-02T21:37:19.363Z,3.84
2023-04-02T21:39:47.215Z,3.82
2023-04-02T21:42:15.139Z,3.80
2023-04-02T21:44:42.942Z,3.78
2023-04-02T21:47:11.075Z,3.77
2023-04-02T21:49:38.908Z,3.75
2023-04-02T21:52:08.065Z,3.72
2023-04-02T21:54:35.897Z,3.69
2023-04-02T21:57:03.751Z,3.65
2023-04-02T21:59:31.545Z,3.63
2023-04-02T22:01:59.324Z,3.63
2023-04-02T22:06:39.715Z,3.63
2023-04-02T22:09:11.120Z,3.62
2023-04-02T22:11:41.125Z,3.60
2023-04-02T22:14:08.892Z,3.60
2023-04-02T22:16:37.539Z,3.56
2023-04-02T22:19:06.988Z,3.53
2023-04-02T22:21:35.231Z,3.52
2023-04-02T22:24:06.412Z,3.50
2023-04-02T22:26:35.036Z,3.47
2023-04-02T22:29:03.291Z,3.43
2023-04-02T22:31:33.280Z,3.42
2023-04-02T22:34:02.073Z,3.40
2023-04-02T22:36:30.388Z,3.38
2023-04-02T22:38:58.632Z,3.32
2023-04-02T22:41:29.667Z,3.32
2023-04-02T22:43:58.720Z,3.29
2023-04-02T22:46:28.601Z,3.27
2023-04-02T22:48:56.872Z,3.23
2023-04-02T22:51:27.493Z,3.21
2023-04-02T22:53:56.623Z,3.19
2023-04-02T22:56:28.604Z,3.15
2023-04-02T22:58:56.523Z,3.11
2023-04-02T23:01:26.360Z,3.05
2023-04-02T23:03:55.103Z,3.00
2023-04-02T23:06:24.442Z,2.96
2023-04-02T23:08:53.051Z,2.91
2023-04-02T23:11:22.634Z,2.85
2023-04-02T23:13:53.567Z,2.81
2023-04-02T23:16:22.720Z,2.75
2023-04-02T23:18:51.139Z,2.72
2023-04-02T23:21:20.833Z,2.65
2023-04-02T23:23:49.116Z,2.59
2023-04-02T23:26:18.900Z,2.50
2023-04-02T23:28:46.801Z,2.43
2023-04-02T23:31:17.712Z,2.36
2023-04-02T23:33:46.200Z,2.33
2023-04-02T23:36:17.416Z,2.26
2023-04-02T23:38:45.204Z,2.18
2023-04-02T23:41:15.009Z,2.13
2023-04-02T23:43:43.037Z,2.08
2023-04-02T23:46:11.539Z,2.03
2023-04-02T23:48:41.194Z,1.97
2023-04-02T23:51:09.154Z,1.91
2023-04-02T23:53:36.929Z,1.87
2023-04-02T23:56:04.949Z,1.81
2023-04-02T23:58:32.943Z,1.72
